Time;durP1;ratioP1;P1;durP2;ratioP2;P2;SDS_P1;SDS_P2;PMS_P1;PMS_P2;Temp;Humidity;BMP_temperature;BMP_pressure;BME280_temperature;BME280_humidity;BME280_pressure;Samples;Min_cycle;Max_cycle;Signal;HPM_P1;HPM_P2
2023/11/01 00:00:06;;;;;;;2.17;1.98;;;;;;;;;;5017472;28;20061;-84
2023/11/01 00:02:39;;;;;;;2.95;1.63;;;;;;;;;;5031119;28;20474;-84
2023/11/01 00:05:08;;;;;;;1.98;1.75;;;;;;;;;;5007897;28;20128;-84
2023/11/01 00:07:35;;;;;;;4.78;1.88;;;;;;;;;;5036217;28;20053;-84
2023/11/01 00:10:04;;;;;;;2.50;1.83;;;;;;;;;;5016881;28;20529;-85
2023/11/01 00:12:33;;;;;;;1.80;1.50;;;;;;;;;;5041342;28;20045;-84
2023/11/01 00:15:03;;;;;;;2.10;1.20;;;;;;;;;;5041313;28;20041;-85
2023/11/01 00:17:33;;;;;;;1.77;1.67;;;;;;;;;;5015652;28;20059;-85
2023/11/01 00:20:02;;;;;;;2.90;1.70;;;;;;;;;;5017146;28;20487;-85
2023/11/01 00:22:31;;;;;;;7.15;2.42;;;;;;;;;;5030121;28;20061;-85
2023/11/01 00:25:00;;;;;;;2.30;1.70;;;;;;;;;;5029310;28;20045;-84
2023/11/01 00:27:30;;;;;;;2.05;1.30;;;;;;;;;;5032683;28;20048;-84
2023/11/01 00:29:58;;;;;;;1.80;1.30;;;;;;;;;;5032871;28;20052;-84
2023/11/01 00:32:28;;;;;;;3.60;1.42;;;;;;;;;;5032030;28;20052;-84
2023/11/01 00:34:55;;;;;;;4.70;1.60;;;;;;;;;;5014661;28;20052;-84
2023/11/01 00:37:22;;;;;;;2.03;1.60;;;;;;;;;;5033611;28;20049;-84
2023/11/01 00:39:51;;;;;;;2.35;1.50;;;;;;;;;;5031338;28;20061;-85
2023/11/01 00:42:18;;;;;;;2.95;2.00;;;;;;;;;;5032290;28;20047;-84
2023/11/01 00:44:46;;;;;;;2.17;1.52;;;;;;;;;;5015240;28;20049;-85
2023/11/01 00:47:13;;;;;;;3.00;1.63;;;;;;;;;;5031752;28;20049;-85
2023/11/01 00:49:40;;;;;;;1.73;1.48;;;;;;;;;;5047037;28;20052;-84
2023/11/01 00:52:07;;;;;;;3.80;1.40;;;;;;;;;;5032491;28;20510;-84
2023/11/01 00:54:34;;;;;;;1.55;1.10;;;;;;;;;;5029735;28;20056;-84
2023/11/01 00:57:03;;;;;;;2.58;1.60;;;;;;;;;;5015964;28;20040;-85
2023/11/01 00:59:30;;;;;;;2.35;1.48;;;;;;;;;;5031557;28;20695;-85
2023/11/01 01:01:57;;;;;;;3.92;1.52;;;;;;;;;;5018055;28;20402;-85
2023/11/01 01:04:25;;;;;;;3.58;1.60;;;;;;;;;;5014946;28;20079;-85
2023/11/01 01:06:52;;;;;;;3.35;1.73;;;;;;;;;;5045266;28;20402;-85
2023/11/01 01:09:21;;;;;;;1.67;1.13;;;;;;;;;;5030756;28;20053;-85
2023/11/01 01:11:48;;;;;;;1.92;1.40;;;;;;;;;;5031966;28;20525;-85
2023/11/01 01:14:19;;;;;;;2.17;1.40;;;;;;;;;;5033021;28;20052;-84
2023/11/01 01:16:47;;;;;;;2.25;1.20;;;;;;;;;;5014130;28;20041;-84
2023/11/01 01:19:16;;;;;;;2.00;1.55;;;;;;;;;;5050458;22;20049;-82
2023/11/01 01:21:46;;;;;;;3.67;1.40;;;;;;;;;;5013048;28;20519;-82
2023/11/01 01:24:16;;;;;;;2.10;1.45;;;;;;;;;;5016494;28;20052;-82
2023/11/01 01:26:47;;;;;;;2.70;1.40;;;;;;;;;;5023070;28;20045;-82
2023/11/01 01:29:14;;;;;;;2.17;1.35;;;;;;;;;;5018868;28;20061;-82
2023/11/01 01:31:45;;;;;;;1.85;1.20;;;;;;;;;;5028325;28;20049;-82
2023/11/01 01:34:15;;;;;;;3.35;1.45;;;;;;;;;;5016901;28;20050;-82
2023/11/01 01:36:42;;;;;;;1.88;1.40;;;;;;;;;;5034612;28;20048;-82
2023/11/01 01:39:09;;;;;;;2.40;1.20;;;;;;;;;;5042032;28;20053;-82
2023/11/01 01:41:36;;;;;;;1.83;1.13;;;;;;;;;;5044342;28;20052;-82
2023/11/01 01:44:06;;;;;;;1.67;1.48;;;;;;;;;;5012439;28;20057;-82
2023/11/01 01:46:34;;;;;;;3.70;1.38;;;;;;;;;;5021349;28;20053;-82
2023/11/01 01:49:02;;;;;;;6.22;1.30;;;;;;;;;;5024904;28;20045;-82
2023/11/01 01:51:30;;;;;;;1.67;1.00;;;;;;;;;;5025844;28;20056;-82
2023/11/01 01:53:59;;;;;;;3.22;1.02;;;;;;;;;;5029781;28;20049;-82
2023/11/01 01:56:31;;;;;;;2.83;2.13;;;;;;;;;;5026726;28;20052;-82
2023/11/01 01:59:03;;;;;;;1.65;1.00;;;;;;;;;;5028292;28;20067;-82
2023/11/01 02:01:33;;;;;;;1.58;1.48;;;;;;;;;;5026847;28;20049;-82
2023/11/01 02:04:02;;;;;;;2.53;1.45;;;;;;;;;;5033725;28;20048;-82
2023/11/01 02:06:29;;;;;;;1.80;1.35;;;;;;;;;;5040749;28;20056;-82
2023/11/01 02:08:57;;;;;;;1.33;1.02;;;;;;;;;;5023598;28;20045;-82
2023/11/01 02:11:26;;;;;;;1.65;1.23;;;;;;;;;;5046296;28;20048;-82
2023/11/01 02:13:54;;;;;;;2.00;1.42;;;;;;;;;;5031082;28;20061;-82
2023/11/01 02:16:22;;;;;;;2.58;1.50;;;;;;;;;;5006773;28;20053;-82
2023/11/01 02:18:50;;;;;;;1.77;1.38;;;;;;;;;;5036480;28;20653;-82
2023/11/01 02:21:20;;;;;;;2.38;1.85;;;;;;;;;;5044789;28;20044;-82
2023/11/01 02:23:49;;;;;;;1.60;1.30;;;;;;;;;;5022294;28;20049;-82
2023/11/01 02:26:18;;;;;;;3.45;1.27;;;;;;;;;;5030915;28;20053;-82
2023/11/01 02:28:46;;;;;;;2.35;1.02;;;;;;;;;;5025599;28;20045;-82
2023/11/01 02:31:15;;;;;;;4.20;1.20;;;;;;;;;;5045970;28;20056;-82
2023/11/01 02:33:42;;;;;;;3.33;1.40;;;;;;;;;;5030273;28;20056;-82
2023/11/01 02:36:10;;;;;;;3.97;1.00;;;;;;;;;;5038322;28;20056;-82
2023/11/01 02:38:37;;;;;;;2.30;1.00;;;;;;;;;;5028989;28;20388;-82
2023/11/01 02:41:08;;;;;;;2.47;1.50;;;;;;;;;;5027195;28;20048;-82
2023/11/01 02:43:36;;;;;;;2.08;1.52;;;;;;;;;;5042689;28;20514;-82
2023/11/01 02:46:03;;;;;;;4.30;1.50;;;;;;;;;;5037708;28;20049;-82
2023/11/01 02:48:30;;;;;;;1.33;1.23;;;;;;;;;;5023851;28;20067;-82
2023/11/01 02:50:57;;;;;;;2.20;1.10;;;;;;;;;;5045134;28;20081;-82
2023/11/01 02:53:27;;;;;;;5.30;1.30;;;;;;;;;;5028421;28;20048;-82
2023/11/01 02:55:54;;;;;;;3.53;1.20;;;;;;;;;;5035501;28;20519;-82
2023/11/01 02:58:25;;;;;;;1.73;1.38;;;;;;;;;;5023258;28;20047;-82
2023/11/01 03:00:52;;;;;;;2.40;1.55;;;;;;;;;;5036120;28;20052;-82
2023/11/01 03:03:22;;;;;;;3.47;1.23;;;;;;;;;;5047326;28;20040;-82
2023/11/01 03:05:49;;;;;;;2.50;1.23;;;;;;;;;;5038879;28;20052;-82
2023/11/01 03:08:16;;;;;;;3.42;1.90;;;;;;;;;;5017599;28;20381;-82
2023/11/01 03:10:46;;;;;;;1.35;1.20;;;;;;;;;;5039832;28;20056;-82
2023/11/01 03:13:14;;;;;;;1.30;1.20;;;;;;;;;;5024268;28;20068;-82
2023/11/01 03:15:45;;;;;;;2.53;1.10;;;;;;;;;;5022889;28;20061;-82
2023/11/01 03:18:12;;;;;;;1.63;1.27;;;;;;;;;;5022772;28;20041;-82
2023/11/01 03:20:39;;;;;;;1.38;1.27;;;;;;;;;;5027643;28;20049;-82
2023/11/01 03:23:06;;;;;;;2.15;1.35;;;;;;;;;;5042352;28;20053;-82
2023/11/01 03:25:34;;;;;;;3.05;1.60;;;;;;;;;;5022586;28;20045;-82
2023/11/01 03:28:01;;;;;;;1.42;1.33;;;;;;;;;;5021686;28;20048;-82
2023/11/01 03:30:28;;;;;;;3.20;1.35;;;;;;;;;;5020610;28;20056;-82
2023/11/01 03:32:59;;;;;;;2.13;1.42;;;;;;;;;;5029285;28;20052;-82
2023/11/01 03:35:26;;;;;;;2.05;1.48;;;;;;;;;;5024989;28;20050;-82
2023/11/01 03:37:56;;;;;;;1.77;1.40;;;;;;;;;;5038699;28;20044;-82
2023/11/01 03:40:25;;;;;;;3.60;1.20;;;;;;;;;;5037863;28;20048;-82
2023/11/01 03:42:54;;;;;;;4.15;1.92;;;;;;;;;;5023897;28;20049;-82
2023/11/01 03:45:21;;;;;;;9.10;2.38;;;;;;;;;;5060328;28;20044;-83
2023/11/01 03:47:49;;;;;;;3.75;1.50;;;;;;;;;;5015763;28;20048;-83
2023/11/01 03:50:18;;;;;;;1.70;1.52;;;;;;;;;;5028312;28;20061;-83
2023/11/01 03:52:45;;;;;;;6.07;2.67;;;;;;;;;;5042562;28;20060;-83
2023/11/01 03:55:13;;;;;;;3.65;1.67;;;;;;;;;;5039714;28;20041;-83
2023/11/01 03:57:42;;;;;;;2.33;1.63;;;;;;;;;;5047096;28;20435;-82
2023/11/01 04:00:20;;;;;;;2.20;1.40;;;;;;;;;;5025041;28;20049;-82
2023/11/01 04:02:50;;;;;;;1.73;1.40;;;;;;;;;;5032477;28;20059;-82
2023/11/01 04:05:19;;;;;;;3.65;1.63;;;;;;;;;;5033924;28;20056;-83
2023/11/01 04:07:46;;;;;;;5.10;2.08;;;;;;;;;;5041739;28;20045;-82
2023/11/01 04:10:14;;;;;;;3.47;1.40;;;;;;;;;;5020630;28;20053;-82
2023/11/01 04:12:41;;;;;;;1.85;1.45;;;;;;;;;;5041188;28;20049;-82
2023/11/01 04:15:10;;;;;;;2.25;1.42;;;;;;;;;;5015566;28;20057;-82
2023/11/01 04:17:43;;;;;;;1.98;1.58;;;;;;;;;;5020165;28;20505;-82
2023/11/01 04:20:13;;;;;;;4.10;1.73;;;;;;;;;;5019331;28;20060;-82
2023/11/01 04:22:41;;;;;;;3.90;1.30;;;;;;;;;;5019028;28;20124;-82
2023/11/01 04:25:10;;;;;;;2.05;1.80;;;;;;;;;;5026458;28;20059;-82
2023/11/01 04:27:39;;;;;;;1.67;1.25;;;;;;;;;;5041720;28;20041;-82
2023/11/01 04:30:08;;;;;;;1.60;1.50;;;;;;;;;;5026306;28;20057;-82
2023/11/01 04:32:35;;;;;;;1.83;1.42;;;;;;;;;;5054755;28;20059;-82
2023/11/01 04:35:03;;;;;;;3.15;1.85;;;;;;;;;;5027649;28;20056;-82
2023/11/01 04:37:33;;;;;;;5.00;1.70;;;;;;;;;;5043684;28;20292;-82
2023/11/01 04:40:01;;;;;;;3.83;3.30;;;;;;;;;;5036102;28;20052;-82
2023/11/01 04:42:28;;;;;;;2.42;1.67;;;;;;;;;;5021127;28;20056;-82
2023/11/01 04:44:58;;;;;;;2.80;1.70;;;;;;;;;;5033650;28;20049;-82
2023/11/01 04:47:27;;;;;;;2.60;2.17;;;;;;;;;;5025870;28;20049;-83
2023/11/01 04:49:57;;;;;;;2.28;1.52;;;;;;;;;;5037808;28;20052;-82
2023/11/01 04:52:24;;;;;;;2.13;1.60;;;;;;;;;;5034162;28;20041;-82
2023/11/01 04:54:51;;;;;;;4.82;1.73;;;;;;;;;;5035734;28;20045;-82
2023/11/01 04:57:20;;;;;;;3.25;1.88;;;;;;;;;;5027615;28;20048;-82
2023/11/01 04:59:47;;;;;;;3.58;1.80;;;;;;;;;;5059366;28;20056;-82
2023/11/01 05:02:17;;;;;;;4.05;1.42;;;;;;;;;;5043409;28;20068;-82
2023/11/01 05:04:44;;;;;;;3.80;1.60;;;;;;;;;;5036427;28;20049;-82
2023/11/01 05:07:12;;;;;;;1.73;1.30;;;;;;;;;;5041187;28;20081;-82
2023/11/01 05:09:41;;;;;;;5.25;2.17;;;;;;;;;;5038472;28;20038;-82
2023/11/01 05:12:09;;;;;;;3.30;2.15;;;;;;;;;;5054261;28;20053;-82
2023/11/01 05:14:38;;;;;;;1.80;1.30;;;;;;;;;;5016067;28;20429;-82
2023/11/01 05:17:05;;;;;;;2.53;1.35;;;;;;;;;;5032830;28;20112;-82
2023/11/01 05:19:36;;;;;;;6.25;2.20;;;;;;;;;;5054521;28;20051;-82
2023/11/01 05:22:03;;;;;;;3.08;1.85;;;;;;;;;;5035725;28;20053;-82
2023/11/01 05:24:33;;;;;;;3.67;2.03;;;;;;;;;;5053517;28;20064;-82
2023/11/01 05:27:07;;;;;;;2.15;1.60;;;;;;;;;;5030381;28;20063;-82
2023/11/01 05:29:34;;;;;;;2.72;2.28;;;;;;;;;;5057315;28;20053;-82
2023/11/01 05:32:06;;;;;;;2.53;1.55;;;;;;;;;;5031474;28;20055;-83
2023/11/01 05:34:33;;;;;;;3.80;1.75;;;;;;;;;;5024493;28;20042;-82
2023/11/01 05:37:01;;;;;;;3.70;2.03;;;;;;;;;;5019948;28;20054;-82
2023/11/01 05:39:28;;;;;;;4.93;1.98;;;;;;;;;;5046078;28;20057;-82
2023/11/01 05:41:55;;;;;;;2.35;1.52;;;;;;;;;;5045629;28;20060;-82
2023/11/01 05:44:25;;;;;;;4.55;2.00;;;;;;;;;;5023058;28;20533;-82
2023/11/01 05:46:52;;;;;;;3.33;1.63;;;;;;;;;;5047498;28;20067;-82
2023/11/01 05:49:21;;;;;;;2.63;1.50;;;;;;;;;;5030279;28;20052;-82
2023/11/01 05:51:51;;;;;;;2.95;1.73;;;;;;;;;;5055634;28;20051;-82
2023/11/01 05:54:18;;;;;;;2.33;2.13;;;;;;;;;;5028156;28;20419;-82
2023/11/01 05:56:45;;;;;;;6.50;2.60;;;;;;;;;;5047309;28;20052;-82
2023/11/01 05:59:15;;;;;;;3.35;2.15;;;;;;;;;;5010739;28;20041;-82
2023/11/01 06:01:44;;;;;;;6.60;2.38;;;;;;;;;;5020890;28;20045;-82
2023/11/01 06:04:14;;;;;;;2.22;2.03;;;;;;;;;;5026746;28;20049;-82
2023/11/01 06:06:45;;;;;;;3.38;1.80;;;;;;;;;;5028777;28;20053;-82
2023/11/01 06:09:19;;;;;;;4.28;1.88;;;;;;;;;;5046661;28;20052;-83
2023/11/01 06:11:48;;;;;;;2.78;1.83;;;;;;;;;;5025897;28;20045;-83
2023/11/01 06:14:16;;;;;;;1.90;1.67;;;;;;;;;;5023421;28;20057;-83
2023/11/01 06:16:43;;;;;;;4.00;2.05;;;;;;;;;;5036240;28;20041;-83
2023/11/01 06:19:11;;;;;;;4.30;2.00;;;;;;;;;;5023716;28;20049;-82
2023/11/01 06:21:39;;;;;;;2.63;1.83;;;;;;;;;;5026147;28;20049;-83
2023/11/01 06:24:09;;;;;;;3.58;2.30;;;;;;;;;;5029880;28;20057;-82
2023/11/01 06:26:37;;;;;;;2.45;1.30;;;;;;;;;;5023188;28;20049;-82
2023/11/01 06:29:06;;;;;;;3.65;1.33;;;;;;;;;;5024518;28;20052;-82
2023/11/01 06:31:38;;;;;;;1.90;1.70;;;;;;;;;;5041273;28;20064;-82
2023/11/01 06:34:07;;;;;;;9.43;1.92;;;;;;;;;;5053651;28;20061;-82
2023/11/01 06:36:34;;;;;;;2.47;1.80;;;;;;;;;;5024888;28;20053;-82
2023/11/01 06:39:02;;;;;;;5.97;2.22;;;;;;;;;;5017571;28;20045;-82
2023/11/01 06:41:31;;;;;;;3.38;2.08;;;;;;;;;;5023030;28;20056;-82
2023/11/01 06:43:58;;;;;;;1.75;1.35;;;;;;;;;;5038575;28;20056;-82
2023/11/01 06:46:28;;;;;;;6.85;2.70;;;;;;;;;;5039452;28;20060;-82
2023/11/01 06:48:55;;;;;;;5.38;2.35;;;;;;;;;;5039287;28;20052;-82
2023/11/01 06:51:22;;;;;;;2.20;1.90;;;;;;;;;;5043523;28;20041;-82
2023/11/01 06:53:52;;;;;;;2.55;1.90;;;;;;;;;;5047727;28;20052;-83
2023/11/01 06:56:19;;;;;;;5.00;1.75;;;;;;;;;;5031599;28;20057;-83
2023/11/01 06:58:47;;;;;;;2.85;2.03;;;;;;;;;;5025463;28;20060;-82
2023/11/01 07:01:15;;;;;;;9.85;3.05;;;;;;;;;;5029082;28;20060;-82
2023/11/01 07:03:42;;;;;;;4.95;2.15;;;;;;;;;;5040294;28;20052;-82
2023/11/01 07:06:09;;;;;;;4.30;2.47;;;;;;;;;;5021023;28;20396;-82
2023/11/01 07:08:38;;;;;;;3.38;2.28;;;;;;;;;;5043891;28;20052;-83
2023/11/01 07:11:05;;;;;;;2.92;2.33;;;;;;;;;;5048400;28;20045;-82
2023/11/01 07:13:32;;;;;;;4.93;2.40;;;;;;;;;;5049676;28;20063;-82
2023/11/01 07:16:01;;;;;;;5.28;2.53;;;;;;;;;;5059404;28;20049;-82
2023/11/01 07:18:28;;;;;;;2.40;2.15;;;;;;;;;;5072462;22;20037;-82
2023/11/01 07:20:57;;;;;;;2.78;2.15;;;;;;;;;;5006346;28;20081;-84
2023/11/01 07:23:25;;;;;;;4.68;2.42;;;;;;;;;;4991761;28;20694;-84
2023/11/01 07:25:54;;;;;;;2.55;2.13;;;;;;;;;;5028134;28;21952;-84
2023/11/01 07:28:21;;;;;;;3.47;2.00;;;;;;;;;;4996881;28;20408;-84
2023/11/01 07:30:48;;;;;;;3.42;2.55;;;;;;;;;;4989331;28;20057;-84
2023/11/01 07:33:19;;;;;;;7.63;3.38;;;;;;;;;;5026731;28;20045;-84
2023/11/01 07:35:47;;;;;;;3.92;3.35;;;;;;;;;;5030216;28;20053;-84
2023/11/01 07:38:19;;;;;;;4.05;3.28;;;;;;;;;;4996070;28;20053;-83
2023/11/01 07:40:46;;;;;;;4.85;2.85;;;;;;;;;;5009829;28;20421;-83
2023/11/01 07:43:13;;;;;;;4.88;2.70;;;;;;;;;;4995493;28;20503;-84
2023/11/01 07:45:43;;;;;;;3.65;2.40;;;;;;;;;;4988532;28;20068;-84
2023/11/01 07:48:13;;;;;;;5.40;2.38;;;;;;;;;;5022956;28;20053;-84
2023/11/01 07:50:43;;;;;;;3.92;2.53;;;;;;;;;;5009009;28;20057;-84
2023/11/01 07:53:13;;;;;;;2.97;2.60;;;;;;;;;;4999320;28;20415;-84
2023/11/01 07:55:42;;;;;;;3.42;2.65;;;;;;;;;;5020793;28;20109;-84
2023/11/01 07:58:14;;;;;;;2.65;2.20;;;;;;;;;;5011414;28;20049;-84
2023/11/01 08:00:42;;;;;;;2.40;1.95;;;;;;;;;;5011379;28;20041;-84
2023/11/01 08:03:09;;;;;;;2.17;1.42;;;;;;;;;;4990358;28;20054;-84
2023/11/01 08:05:38;;;;;;;1.98;1.48;;;;;;;;;;5011528;28;20124;-84
2023/11/01 08:08:07;;;;;;;5.32;1.58;;;;;;;;;;4990827;28;20053;-84
2023/11/01 08:10:39;;;;;;;3.05;1.83;;;;;;;;;;5008198;28;20045;-84
2023/11/01 08:13:11;;;;;;;6.35;2.03;;;;;;;;;;4991533;28;20064;-84
2023/11/01 08:15:42;;;;;;;2.00;1.80;;;;;;;;;;5026185;28;20057;-83
2023/11/01 08:18:10;;;;;;;2.17;1.77;;;;;;;;;;4991631;28;20049;-84
2023/11/01 08:20:38;;;;;;;1.98;1.40;;;;;;;;;;5026145;28;20045;-84
2023/11/01 08:23:07;;;;;;;1.83;1.60;;;;;;;;;;5008334;28;20057;-84
2023/11/01 08:25:37;;;;;;;7.13;2.50;;;;;;;;;;5005640;28;20053;-84
2023/11/01 08:28:04;;;;;;;2.78;1.35;;;;;;;;;;5012298;28;20842;-84
2023/11/01 08:30:31;;;;;;;3.00;1.80;;;;;;;;;;5025752;28;20048;-84
2023/11/01 08:33:01;;;;;;;2.42;1.92;;;;;;;;;;5006975;28;20060;-84
2023/11/01 08:35:31;;;;;;;3.40;1.65;;;;;;;;;;5008324;28;20057;-84
2023/11/01 08:38:03;;;;;;;1.83;1.45;;;;;;;;;;5009679;28;20054;-84
2023/11/01 08:40:31;;;;;;;2.00;1.63;;;;;;;;;;5007613;28;20045;-84
2023/11/01 08:43:01;;;;;;;2.55;1.80;;;;;;;;;;5025362;28;20057;-84
2023/11/01 08:45:33;;;;;;;3.35;2.20;;;;;;;;;;5025125;28;20072;-83
2023/11/01 08:48:01;;;;;;;2.67;1.80;;;;;;;;;;4991399;28;20056;-84
2023/11/01 08:50:28;;;;;;;4.68;3.22;;;;;;;;;;5004017;28;20061;-84
2023/11/01 08:52:58;;;;;;;3.78;1.90;;;;;;;;;;5029448;28;20458;-83
2023/11/01 08:55:32;;;;;;;2.03;1.23;;;;;;;;;;5021260;28;20056;-83
2023/11/01 08:57:59;;;;;;;3.45;1.67;;;;;;;;;;4991436;28;20304;-84
2023/11/01 09:00:26;;;;;;;2.33;1.80;;;;;;;;;;5006109;28;20037;-84
2023/11/01 09:02:54;;;;;;;2.05;1.30;;;;;;;;;;5017135;28;20075;-84
2023/11/01 09:05:26;;;;;;;2.50;1.25;;;;;;;;;;4991766;28;20061;-84
2023/11/01 09:07:55;;;;;;;1.35;1.10;;;;;;;;;;5016117;28;20056;-84
2023/11/01 09:10:22;;;;;;;3.05;1.88;;;;;;;;;;5026243;28;20049;-84
2023/11/01 09:12:51;;;;;;;2.95;1.58;;;;;;;;;;5014682;28;20061;-83
2023/11/01 09:15:21;;;;;;;1.63;0.80;;;;;;;;;;5026967;28;20053;-84
2023/11/01 09:17:49;;;;;;;5.47;1.63;;;;;;;;;;4996744;28;20498;-83
2023/11/01 09:20:21;;;;;;;2.22;1.20;;;;;;;;;;5010952;28;20498;-84
2023/11/01 09:22:51;;;;;;;2.72;0.90;;;;;;;;;;5015045;28;20064;-84
2023/11/01 09:25:18;;;;;;;3.05;1.25;;;;;;;;;;5014350;28;20057;-84
2023/11/01 09:27:51;;;;;;;4.30;0.90;;;;;;;;;;5029084;28;20053;-84
2023/11/01 09:30:21;;;;;;;3.28;1.55;;;;;;;;;;5000381;28;20052;-84
2023/11/01 09:32:53;;;;;;;1.13;0.80;;;;;;;;;;4996357;28;20052;-84
2023/11/01 09:35:23;;;;;;;4.35;1.23;;;;;;;;;;5001051;28;20053;-84
2023/11/01 09:37:53;;;;;;;1.52;1.05;;;;;;;;;;4997734;28;20068;-83
2023/11/01 09:40:20;;;;;;;1.70;1.60;;;;;;;;;;5015268;28;20057;-83
2023/11/01 09:42:49;;;;;;;3.65;1.15;;;;;;;;;;4997939;28;20488;-83
2023/11/01 09:45:19;;;;;;;3.42;1.88;;;;;;;;;;4996394;28;20057;-83
2023/11/01 09:47:47;;;;;;;3.38;1.20;;;;;;;;;;5012044;28;20042;-83
2023/11/01 09:50:17;;;;;;;3.97;1.10;;;;;;;;;;5032705;28;20056;-84
2023/11/01 09:52:47;;;;;;;0.80;0.77;;;;;;;;;;5011306;28;20052;-84
2023/11/01 09:55:15;;;;;;;1.85;1.40;;;;;;;;;;5031148;28;20411;-84
2023/11/01 09:57:48;;;;;;;1.92;1.05;;;;;;;;;;5030433;28;20049;-84
2023/11/01 10:00:19;;;;;;;2.03;1.05;;;;;;;;;;4994399;28;20064;-84
2023/11/01 10:02:49;;;;;;;3.20;1.23;;;;;;;;;;5014677;28;20047;-84
2023/11/01 10:05:16;;;;;;;1.88;0.65;;;;;;;;;;5000068;28;20050;-83
2023/11/01 10:07:46;;;;;;;1.50;0.95;;;;;;;;;;5013645;28;20060;-83
2023/11/01 10:10:19;;;;;;;3.45;1.55;;;;;;;;;;5029396;28;20068;-84
2023/11/01 10:12:48;;;;;;;1.60;0.93;;;;;;;;;;5029132;28;20053;-84
2023/11/01 10:15:21;;;;;;;2.60;0.85;;;;;;;;;;4993292;28;20053;-84
2023/11/01 10:17:51;;;;;;;;;;;;;;;;;;5015316;28;20400;-83
2023/11/01 10:20:24;;;;;;;2.28;0.95;;;;;;;;;;5029661;28;19929;-84
2023/11/01 10:22:54;;;;;;;1.13;0.98;;;;;;;;;;5016300;28;20044;-84
2023/11/01 10:25:21;;;;;;;2.15;0.93;;;;;;;;;;5012703;28;21863;-83
2023/11/01 10:27:49;;;;;;;1.40;0.85;;;;;;;;;;5013584;28;20045;-84
2023/11/01 10:30:20;;;;;;;2.35;1.05;;;;;;;;;;5026608;28;20420;-83
2023/11/01 10:32:57;;;;;;;1.13;0.88;;;;;;;;;;5005480;28;20500;-84
2023/11/01 10:35:28;;;;;;;1.85;1.10;;;;;;;;;;5015466;28;20049;-84
2023/11/01 10:37:58;;;;;;;1.35;1.00;;;;;;;;;;5010278;28;20045;-83
2023/11/01 10:40:26;;;;;;;1.85;0.70;;;;;;;;;;5012553;28;20057;-84
2023/11/01 10:42:57;;;;;;;2.58;1.05;;;;;;;;;;5014478;28;20049;-83
2023/11/01 10:45:29;;;;;;;1.05;0.95;;;;;;;;;;5007791;28;20397;-83
2023/11/01 10:47:58;;;;;;;2.92;0.85;;;;;;;;;;5028226;28;20045;-85
2023/11/01 10:50:28;;;;;;;1.98;0.80;;;;;;;;;;5029556;28;20056;-84
2023/11/01 10:52:55;;;;;;;3.42;0.73;;;;;;;;;;4996209;28;20087;-84
2023/11/01 10:55:27;;;;;;;2.70;0.77;;;;;;;;;;4992657;28;20049;-83
2023/11/01 10:58:00;;;;;;;1.80;0.80;;;;;;;;;;4990184;28;20057;-84
2023/11/01 11:00:34;;;;;;;1.13;0.55;;;;;;;;;;5025300;28;20534;-84
2023/11/01 11:03:06;;;;;;;4.85;0.70;;;;;;;;;;5013645;28;20049;-84
2023/11/01 11:05:34;;;;;;;1.00;0.70;;;;;;;;;;4999801;28;20050;-84
2023/11/01 11:08:10;;;;;;;3.00;0.82;;;;;;;;;;5028847;28;20392;-83
2023/11/01 11:10:39;;;;;;;0.68;0.50;;;;;;;;;;5006294;28;20049;-83
2023/11/01 11:13:29;;;;;;;0.80;0.47;;;;;;;;;;5013045;28;20495;-83
2023/11/01 11:16:00;;;;;;;0.75;0.70;;;;;;;;;;5010457;28;20041;-84
2023/11/01 11:18:53;;;;;;;1.15;0.73;;;;;;;;;;5029460;28;20057;-84
2023/11/01 11:22:02;;;;;;;3.10;1.08;;;;;;;;;;5013070;28;20048;-83
2023/11/01 11:24:52;;;;;;;3.20;0.80;;;;;;;;;;5011990;28;20052;-84
2023/11/01 11:27:49;;;;;;;1.60;0.85;;;;;;;;;;5008836;28;20053;-84
2023/11/01 11:31:07;;;;;;;2.67;0.90;;;;;;;;;;4979335;28;20049;-84
2023/11/01 11:33:39;;;;;;;1.52;0.70;;;;;;;;;;5024413;28;20064;-84
2023/11/01 11:36:18;;;;;;;1.15;0.60;;;;;;;;;;5026337;28;20052;-84
2023/11/01 11:38:50;;;;;;;0.80;0.80;;;;;;;;;;4994682;28;20041;-83
2023/11/01 11:41:23;;;;;;;1.10;1.00;;;;;;;;;;5009212;28;20056;-84
2023/11/01 11:44:01;;;;;;;0.75;0.60;;;;;;;;;;4997497;28;20057;-84
2023/11/01 11:46:28;;;;;;;3.40;1.13;;;;;;;;;;5011930;28;20057;-83
2023/11/01 11:48:58;;;;;;;1.00;0.90;;;;;;;;;;5008908;28;20066;-83
2023/11/01 11:51:29;;;;;;;5.90;1.20;;;;;;;;;;5008642;28;20049;-84
2023/11/01 11:53:58;;;;;;;1.10;0.68;;;;;;;;;;5030027;28;20056;-84
2023/11/01 11:56:25;;;;;;;1.00;0.45;;;;;;;;;;5027631;28;20045;-84
2023/11/01 11:58:53;;;;;;;1.50;1.05;;;;;;;;;;5010992;28;20053;-84
2023/11/01 12:01:27;;;;;;;2.13;0.73;;;;;;;;;;5025640;28;20052;-84
2023/11/01 12:03:55;;;;;;;2.50;0.75;;;;;;;;;;5024024;28;20061;-83
2023/11/01 12:06:25;;;;;;;1.00;0.50;;;;;;;;;;5008008;28;20045;-83
2023/11/01 12:08:52;;;;;;;2.78;0.93;;;;;;;;;;4992332;28;20053;-83
2023/11/01 12:11:20;;;;;;;0.80;0.60;;;;;;;;;;5019407;28;20431;-83
2023/11/01 12:13:49;;;;;;;1.58;0.68;;;;;;;;;;5003849;28;20062;-83
2023/11/01 12:16:26;;;;;;;2.95;0.70;;;;;;;;;;5005472;28;20041;-83
2023/11/01 12:19:10;;;;;;;2.08;0.85;;;;;;;;;;5006222;28;20406;-83
2023/11/01 12:21:42;;;;;;;1.15;0.85;;;;;;;;;;5023846;28;20357;-84
2023/11/01 12:24:14;;;;;;;1.42;1.15;;;;;;;;;;5008369;28;20041;-83
2023/11/01 12:27:00;;;;;;;2.53;2.03;;;;;;;;;;4992147;28;20057;-82
2023/11/01 12:29:31;;;;;;;1.70;0.88;;;;;;;;;;5028452;28;20148;-83
2023/11/01 12:32:03;;;;;;;3.47;1.30;;;;;;;;;;5012268;28;20050;-83
2023/11/01 12:34:33;;;;;;;1.40;1.20;;;;;;;;;;5021830;28;20033;-83
2023/11/01 12:37:09;;;;;;;1.35;1.00;;;;;;;;;;5010325;28;20076;-84
2023/11/01 12:39:39;;;;;;;2.15;1.40;;;;;;;;;;5010278;28;20045;-83
2023/11/01 12:42:20;;;;;;;8.07;4.03;;;;;;;;;;5009996;28;20076;-83
2023/11/01 12:44:47;;;;;;;6.65;4.90;;;;;;;;;;5007169;28;20057;-83
2023/11/01 12:47:17;;;;;;;3.45;1.50;;;;;;;;;;4995894;28;20048;-83
2023/11/01 12:49:46;;;;;;;3.25;2.08;;;;;;;;;;5030273;28;20061;-84
2023/11/01 12:52:16;;;;;;;2.70;1.55;;;;;;;;;;5025673;28;20403;-83
2023/11/01 12:54:48;;;;;;;1.05;0.80;;;;;;;;;;4991054;28;20064;-82
2023/11/01 12:57:15;;;;;;;1.95;0.85;;;;;;;;;;4994867;28;20049;-83
2023/11/01 12:59:43;;;;;;;2.60;1.00;;;;;;;;;;5004846;28;20049;-83
2023/11/01 13:02:11;;;;;;;2.20;1.75;;;;;;;;;;5003083;28;20053;-83
2023/11/01 13:04:42;;;;;;;1.90;1.40;;;;;;;;;;5005681;28;20049;-83
2023/11/01 13:07:11;;;;;;;2.13;1.30;;;;;;;;;;5005528;28;20054;-84
2023/11/01 13:09:42;;;;;;;1.58;0.90;;;;;;;;;;5028969;28;20541;-83
2023/11/01 13:12:14;;;;;;;2.45;1.13;;;;;;;;;;5011522;28;20482;-83
2023/11/01 13:14:41;;;;;;;2.22;0.93;;;;;;;;;;5030054;28;20048;-84
2023/11/01 13:17:09;;;;;;;2.05;1.30;;;;;;;;;;5011943;28;20053;-83
2023/11/01 13:19:36;;;;;;;1.80;1.13;;;;;;;;;;5059077;22;20041;-83
2023/11/01 13:22:04;;;;;;;14.95;1.52;;;;;;;;;;5023921;28;20063;-83
2023/11/01 13:24:31;;;;;;;1.92;1.17;;;;;;;;;;5023416;28;20047;-83
2023/11/01 13:27:05;;;;;;;1.90;1.05;;;;;;;;;;5055871;28;20399;-83
2023/11/01 13:29:33;;;;;;;1.98;1.55;;;;;;;;;;5038587;28;20057;-82
2023/11/01 13:32:00;;;;;;;1.42;0.90;;;;;;;;;;5020776;28;20064;-82
2023/11/01 13:34:33;;;;;;;1.52;0.80;;;;;;;;;;5023105;28;20048;-82
2023/11/01 13:37:06;;;;;;;;;;;;;;;;;;5022629;28;20064;-83
2023/11/01 13:39:33;;;;;;;1.35;1.00;;;;;;;;;;5022251;28;19921;-83
2023/11/01 13:42:02;;;;;;;1.10;0.70;;;;;;;;;;5037976;28;20040;-83
2023/11/01 13:44:32;;;;;;;2.10;0.88;;;;;;;;;;5039584;28;20044;-82
2023/11/01 13:47:00;;;;;;;1.63;0.70;;;;;;;;;;5040699;28;20491;-83
2023/11/01 13:49:27;;;;;;;2.03;0.90;;;;;;;;;;5041386;28;20041;-82
2023/11/01 13:51:55;;;;;;;1.70;1.25;;;;;;;;;;5057832;28;20059;-83
2023/11/01 13:54:22;;;;;;;1.27;0.70;;;;;;;;;;5024966;28;20060;-83
2023/11/01 13:56:50;;;;;;;0.55;0.50;;;;;;;;;;5043015;28;20740;-83
2023/11/01 13:59:18;;;;;;;0.98;0.75;;;;;;;;;;5023705;28;20070;-83
2023/11/01 14:01:46;;;;;;;2.50;2.05;;;;;;;;;;5023125;28;20056;-83
2023/11/01 14:04:14;;;;;;;3.35;1.67;;;;;;;;;;5023596;28;20056;-83
2023/11/01 14:06:41;;;;;;;7.05;1.10;;;;;;;;;;5029058;28;20045;-82
2023/11/01 14:09:11;;;;;;;1.67;1.10;;;;;;;;;;5039959;28;20057;-82
2023/11/01 14:11:38;;;;;;;1.17;0.98;;;;;;;;;;5024248;28;20056;-83
2023/11/01 14:14:08;;;;;;;1.20;1.08;;;;;;;;;;5038724;28;20051;-82
2023/11/01 14:16:39;;;;;;;2.75;1.10;;;;;;;;;;5041877;28;20045;-83
2023/11/01 14:19:10;;;;;;;3.22;1.33;;;;;;;;;;5039248;28;20045;-83
2023/11/01 14:21:37;;;;;;;1.58;1.05;;;;;;;;;;5039024;28;20055;-82
2023/11/01 14:24:06;;;;;;;2.92;1.02;;;;;;;;;;5022592;28;20056;-83
2023/11/01 14:26:37;;;;;;;1.95;1.40;;;;;;;;;;5041856;28;20065;-83
2023/11/01 14:29:05;;;;;;;2.50;1.00;;;;;;;;;;5036561;28;20057;-82
2023/11/01 14:31:32;;;;;;;1.52;1.05;;;;;;;;;;5022666;28;20056;-83
2023/11/01 14:34:01;;;;;;;1.55;0.60;;;;;;;;;;5043026;28;20495;-82
2023/11/01 14:36:28;;;;;;;0.88;0.55;;;;;;;;;;5041035;28;20071;-82
2023/11/01 14:38:55;;;;;;;2.22;0.90;;;;;;;;;;5039545;28;20056;-82
2023/11/01 14:41:23;;;;;;;1.02;0.77;;;;;;;;;;5023785;28;20052;-82
2023/11/01 14:43:50;;;;;;;3.40;1.02;;;;;;;;;;5016629;28;20053;-82
2023/11/01 14:46:17;;;;;;;1.77;1.08;;;;;;;;;;5022509;28;20422;-82
2023/11/01 14:48:47;;;;;;;3.25;0.90;;;;;;;;;;5037716;28;20049;-83
2023/11/01 14:51:18;;;;;;;2.08;0.70;;;;;;;;;;5021540;28;20049;-82
2023/11/01 14:53:48;;;;;;;1.00;0.80;;;;;;;;;;5038868;28;20041;-82
2023/11/01 14:56:17;;;;;;;2.20;1.23;;;;;;;;;;5016712;28;20502;-82